Terminal Aerodrome Forecast
Issued by NWS

Home | Current Version | Previous Version | Text Only | Print | Product List | Glossary On
Versions: 1 2 3 4 5 6 7 8 9 10 11 12 13 14 15
000
FTUS45 KSLC 242327
TAF36U
TAF
K36U 242327Z 2500/2524 23009KT P6SM FEW100
     FM250200 VRB04KT P6SM SCT100
     FM252100 23010G15KT P6SM FEW100=

USA.gov is the U.S. government's official web portal to all federal, state and local government web resources and services.